Time;durP1;ratioP1;P1;durP2;ratioP2;P2;SDS_P1;SDS_P2;PMS_P1;PMS_P2;Temp;Humidity;BMP_temperature;BMP_pressure;BME280_temperature;BME280_humidity;BME280_pressure;Samples;Min_cycle;Max_cycle;Signal;HPM_P1;HPM_P2
2022/08/09 00:01:47;;;;;;;5.50;4.63;;;22.20;99.90;;;;;;5031078;28;20052;-59
2022/08/09 00:04:52;;;;;;;5.20;4.50;;;22.30;99.90;;;;;;5030660;28;20048;-59
2022/08/09 00:07:56;;;;;;;6.35;4.68;;;22.40;99.90;;;;;;5031307;28;20045;-60
2022/08/09 00:11:01;;;;;;;5.35;4.50;;;22.30;99.90;;;;;;5030776;28;20040;-61
2022/08/09 00:14:06;;;;;;;11.13;4.82;;;22.40;99.90;;;;;;5030792;28;20048;-61
2022/08/09 00:17:10;;;;;;;7.70;4.30;;;22.40;99.90;;;;;;5031269;28;20044;-60
2022/08/09 00:20:14;;;;;;;6.72;4.80;;;22.30;99.90;;;;;;5030623;28;20422;-60
2022/08/09 00:23:19;;;;;;;6.05;4.82;;;21.80;99.90;;;;;;5030799;28;20048;-59
2022/08/09 00:26:24;;;;;;;6.32;4.65;;;21.80;99.90;;;;;;5030889;28;20232;-60
2022/08/09 00:29:28;;;;;;;6.93;5.22;;;21.80;99.90;;;;;;5030830;28;20507;-61
2022/08/09 00:32:32;;;;;;;6.28;4.38;;;21.70;99.90;;;;;;5030702;28;20044;-61
2022/08/09 00:35:36;;;;;;;6.60;4.20;;;21.80;99.90;;;;;;5030219;28;20052;-60
2022/08/09 00:38:40;;;;;;;7.93;4.68;;;21.90;99.90;;;;;;5030642;28;20053;-60
2022/08/09 00:41:44;;;;;;;7.50;5.60;;;22.00;99.90;;;;;;5030063;28;20036;-59
2022/08/09 00:44:48;;;;;;;5.57;4.80;;;21.80;99.90;;;;;;5030468;28;20053;-61
2022/08/09 00:47:52;;;;;;;7.95;4.78;;;21.70;99.90;;;;;;5030015;28;20045;-60
2022/08/09 00:50:57;;;;;;;8.38;5.07;;;21.70;99.90;;;;;;5029995;28;20065;-60
2022/08/09 00:54:02;;;;;;;8.77;5.13;;;21.70;99.90;;;;;;5030194;28;20055;-60
2022/08/09 00:57:06;;;;;;;6.00;5.15;;;21.60;99.90;;;;;;5030343;28;20044;-59
2022/08/09 01:00:13;;;;;;;7.30;5.05;;;21.70;99.90;;;;;;5030157;28;20489;-59
2022/08/09 01:03:26;;;;;;;5.50;4.90;;;21.60;99.90;;;;;;5029790;28;20045;-60
2022/08/09 01:06:41;;;;;;;5.28;4.60;;;21.50;99.90;;;;;;5030123;28;20404;-61
2022/08/09 01:09:58;;;;;;;4.85;4.38;;;21.50;99.90;;;;;;5030619;28;20040;-59
2022/08/09 01:13:16;;;;;;;4.97;4.18;;;21.60;99.90;;;;;;5030064;28;20044;-60
2022/08/09 01:16:25;;;;;;;7.68;4.95;;;21.60;99.90;;;;;;5030108;28;20037;-60
2022/08/09 01:19:50;;;;;;;6.28;4.97;;;21.50;99.90;;;;;;5029800;28;20045;-60
2022/08/09 01:22:54;;;;;;;6.43;4.53;;;21.40;99.90;;;;;;5017528;28;20053;-60
2022/08/09 01:26:29;;;;;;;4.13;3.35;;;21.50;99.90;;;;;;5029545;28;20048;-60
2022/08/09 01:29:43;;;;;;;6.30;2.50;;;21.80;99.90;;;;;;5029771;28;20404;-60
2022/08/09 01:32:50;;;;;;;4.07;3.45;;;22.30;99.90;;;;;;5029502;28;20519;-59
2022/08/09 01:36:06;;;;;;;4.93;2.47;;;22.70;99.90;;;;;;5029456;28;20052;-60
2022/08/09 01:39:11;;;;;;;3.00;2.65;;;22.80;99.90;;;;;;5029651;28;20044;-60
2022/08/09 01:42:16;;;;;;;3.47;2.65;;;22.90;99.90;;;;;;5029277;28;20044;-60
2022/08/09 01:45:21;;;;;;;5.32;2.97;;;23.00;99.90;;;;;;5029645;28;20049;-60
2022/08/09 01:48:27;;;;;;;3.40;2.58;;;23.00;99.90;;;;;;5029733;28;20041;-59
2022/08/09 01:51:32;;;;;;;3.95;3.03;;;23.00;99.90;;;;;;5029242;28;20048;-60
2022/08/09 01:54:40;;;;;;;5.93;4.10;;;23.10;99.90;;;;;;5029448;28;20056;-60
2022/08/09 01:57:48;;;;;;;3.90;3.30;;;22.80;99.90;;;;;;5029628;28;20057;-60
2022/08/09 02:00:55;;;;;;;4.30;3.42;;;22.50;99.90;;;;;;5029440;28;20515;-60
2022/08/09 02:04:00;;;;;;;2.72;2.20;;;22.50;99.90;;;;;;5028817;28;20048;-60
2022/08/09 02:07:08;;;;;;;3.20;2.22;;;22.50;99.90;;;;;;5029252;28;20045;-60
2022/08/09 02:10:18;;;;;;;3.08;2.13;;;22.70;99.90;;;;;;5029507;28;20128;-60
2022/08/09 02:13:25;;;;;;;3.22;2.35;;;23.00;99.90;;;;;;5005372;28;20064;-60
2022/08/09 02:16:34;;;;;;;6.05;2.78;;;22.90;99.90;;;;;;5029401;28;20052;-60
2022/08/09 02:19:39;;;;;;;3.40;2.60;;;22.80;99.90;;;;;;5029089;28;20045;-60
2022/08/09 02:23:34;;;;;;;2.65;2.40;;;22.80;99.90;;;;;;5016761;28;20048;-59
2022/08/09 02:26:39;;;;;;;2.85;2.38;;;22.80;99.90;;;;;;5012493;28;20418;-60
2022/08/09 02:29:49;;;;;;;2.50;2.30;;;22.80;99.90;;;;;;5032116;28;20052;-60
2022/08/09 02:32:54;;;;;;;2.40;2.20;;;22.90;99.90;;;;;;5032381;28;20408;-59
2022/08/09 02:36:00;;;;;;;4.38;2.67;;;23.00;99.90;;;;;;5033150;28;20044;-60
2022/08/09 02:39:07;;;;;;;5.13;3.65;;;22.90;99.90;;;;;;5032970;28;20044;-60
2022/08/09 02:42:16;;;;;;;4.75;3.92;;;22.60;99.90;;;;;;5032593;28;20041;-60
2022/08/09 02:45:27;;;;;;;4.53;3.78;;;22.40;99.90;;;;;;5032550;28;20048;-60
2022/08/09 02:48:34;;;;;;;7.40;3.97;;;22.20;99.90;;;;;;5032569;28;20408;-60
2022/08/09 02:51:42;;;;;;;6.68;4.15;;;22.00;99.90;;;;;;5032137;28;20048;-61
2022/08/09 02:54:49;;;;;;;4.00;3.60;;;21.80;99.90;;;;;;5032498;28;20044;-60
2022/08/09 02:57:56;;;;;;;4.95;4.00;;;21.70;99.90;;;;;;5032338;28;20049;-60
2022/08/09 03:01:00;;;;;;;7.97;4.40;;;21.60;99.90;;;;;;5032373;28;20408;-61
2022/08/09 03:04:06;;;;;;;5.03;4.18;;;21.60;99.90;;;;;;5031893;28;20044;-58
2022/08/09 03:07:13;;;;;;;4.65;4.00;;;21.50;99.90;;;;;;5032362;28;20404;-61
2022/08/09 03:10:17;;;;;;;5.10;4.22;;;21.50;99.90;;;;;;5031874;28;20040;-60
2022/08/09 03:13:23;;;;;;;6.05;4.45;;;21.60;99.90;;;;;;5031625;28;20052;-60
2022/08/09 03:16:28;;;;;;;7.32;4.30;;;21.50;99.90;;;;;;5031835;28;20052;-61
2022/08/09 03:19:33;;;;;;;5.38;3.50;;;21.50;99.90;;;;;;5032221;28;20044;-60
2022/08/09 03:22:42;;;;;;;7.45;3.65;;;21.60;99.90;;;;;;5031798;28;20036;-60
2022/08/09 03:25:48;;;;;;;4.20;3.67;;;21.70;99.90;;;;;;5031958;28;20049;-59
2022/08/09 03:28:54;;;;;;;4.38;3.88;;;21.70;99.90;;;;;;5031972;28;20052;-60
2022/08/09 03:31:58;;;;;;;5.28;3.50;;;21.80;99.90;;;;;;5031696;28;20112;-61
2022/08/09 03:35:02;;;;;;;5.85;3.92;;;21.90;99.90;;;;;;5031683;28;20052;-60
2022/08/09 03:38:08;;;;;;;3.88;3.30;;;21.90;99.90;;;;;;5031471;28;20040;-60
2022/08/09 03:41:14;;;;;;;4.80;3.80;;;22.00;99.90;;;;;;5031791;28;20065;-59
2022/08/09 03:44:18;;;;;;;4.15;3.45;;;22.00;99.90;;;;;;5031393;28;20049;-60
2022/08/09 03:47:22;;;;;;;4.13;3.40;;;22.10;99.90;;;;;;5031579;28;20120;-60
2022/08/09 03:50:27;;;;;;;4.63;4.10;;;22.10;99.90;;;;;;5031769;28;20515;-60
2022/08/09 03:53:32;;;;;;;5.25;3.58;;;22.10;99.90;;;;;;5031244;28;20048;-60
2022/08/09 03:56:36;;;;;;;4.75;3.75;;;22.00;99.90;;;;;;5031561;28;20053;-59
2022/08/09 03:59:41;;;;;;;4.30;3.88;;;22.00;99.90;;;;;;5031545;28;20044;-60
2022/08/09 04:02:46;;;;;;;4.47;4.05;;;22.00;99.90;;;;;;5031060;28;20048;-59
2022/08/09 04:05:50;;;;;;;4.40;4.00;;;21.90;99.90;;;;;;5031413;28;20048;-60
2022/08/09 04:08:55;;;;;;;6.20;3.58;;;21.90;99.90;;;;;;5031109;28;20052;-61
2022/08/09 04:12:08;;;;;;;4.18;3.60;;;21.80;99.90;;;;;;5031044;28;20060;-59
2022/08/09 04:15:15;;;;;;;4.45;3.40;;;21.80;99.90;;;;;;5030792;28;20464;-60
2022/08/09 04:18:19;;;;;;;3.20;2.90;;;21.80;99.90;;;;;;5031173;28;20045;-60
2022/08/09 04:21:23;;;;;;;2.35;2.15;;;22.10;99.90;;;;;;5031042;28;20504;-60
2022/08/09 04:24:28;;;;;;;2.85;2.17;;;22.40;99.90;;;;;;5030307;28;20045;-59
2022/08/09 04:27:34;;;;;;;3.67;3.35;;;22.50;99.90;;;;;;5030968;28;20048;-58
2022/08/09 04:30:39;;;;;;;3.35;2.95;;;22.70;99.90;;;;;;5030844;28;20045;-59
2022/08/09 04:33:43;;;;;;;5.05;3.65;;;22.60;99.90;;;;;;5030059;28;20037;-61
2022/08/09 04:36:47;;;;;;;4.22;3.75;;;22.40;99.90;;;;;;5030919;28;20343;-61
2022/08/09 04:39:51;;;;;;;6.90;3.10;;;22.30;99.90;;;;;;5030744;28;20061;-60
2022/08/09 04:42:55;;;;;;;4.70;4.10;;;22.10;99.90;;;;;;5030617;28;20515;-60
2022/08/09 04:46:00;;;;;;;5.93;3.90;;;21.60;99.90;;;;;;5030879;28;20048;-60
2022/08/09 04:49:04;;;;;;;4.50;3.63;;;21.30;99.90;;;;;;5030473;28;20411;-60
2022/08/09 04:52:08;;;;;;;4.15;3.60;;;21.40;99.90;;;;;;5030067;28;20423;-59
2022/08/09 04:55:13;;;;;;;3.67;3.22;;;21.40;99.90;;;;;;5030247;28;20064;-59
2022/08/09 04:58:17;;;;;;;9.07;3.40;;;21.60;99.90;;;;;;5030665;28;20396;-60
2022/08/09 05:01:21;;;;;;;3.38;2.78;;;21.90;99.90;;;;;;5030670;28;20060;-60
2022/08/09 05:04:25;;;;;;;3.17;2.88;;;22.20;99.90;;;;;;5029524;28;20048;-60
2022/08/09 05:07:29;;;;;;;3.80;2.42;;;22.40;99.90;;;;;;5030667;28;20048;-60
2022/08/09 05:10:33;;;;;;;3.10;2.72;;;22.50;99.90;;;;;;5030674;28;20404;-60
2022/08/09 05:13:39;;;;;;;2.40;2.20;;;22.60;99.90;;;;;;5030283;28;20506;-59
2022/08/09 05:16:44;;;;;;;2.85;2.55;;;22.80;99.90;;;;;;5030175;28;20056;-60
2022/08/09 05:19:48;;;;;;;3.03;2.72;;;22.90;99.90;;;;;;5030426;28;20049;-60
2022/08/09 05:22:53;;;;;;;3.08;2.78;;;23.00;99.90;;;;;;5030023;28;20044;-59
2022/08/09 05:25:58;;;;;;;3.78;3.03;;;23.00;99.90;;;;;;5029705;28;20515;-60
2022/08/09 05:29:02;;;;;;;3.13;2.83;;;23.20;99.90;;;;;;5030095;28;20056;-59
2022/08/09 05:32:06;;;;;;;3.33;3.03;;;23.30;99.90;;;;;;5029922;28;20045;-60
2022/08/09 05:35:10;;;;;;;3.58;2.78;;;23.30;99.90;;;;;;5029387;28;20048;-60
2022/08/09 05:38:14;;;;;;;4.25;3.17;;;23.40;99.90;;;;;;5030122;28;20056;-60
2022/08/09 05:41:19;;;;;;;5.63;3.90;;;23.50;99.90;;;;;;5029717;28;20044;-58
2022/08/09 05:44:23;;;;;;;3.92;3.33;;;23.70;99.90;;;;;;5029521;28;20045;-60
2022/08/09 05:47:27;;;;;;;6.03;3.50;;;23.80;99.90;;;;;;5029592;28;20048;-60
2022/08/09 05:50:31;;;;;;;4.43;3.58;;;23.80;99.90;;;;;;5029527;28;20052;-59
2022/08/09 05:53:35;;;;;;;4.38;3.58;;;23.70;99.90;;;;;;5029097;28;20053;-58
2022/08/09 05:56:39;;;;;;;5.00;3.50;;;23.70;99.90;;;;;;5029312;28;20048;-59
2022/08/09 05:59:43;;;;;;;3.63;3.30;;;23.60;99.90;;;;;;5029698;28;20039;-60
2022/08/09 06:02:47;;;;;;;4.85;4.03;;;23.60;99.90;;;;;;5031021;28;20440;-60
2022/08/09 06:05:51;;;;;;;3.30;2.90;;;23.70;99.90;;;;;;5033237;28;20056;-60
2022/08/09 06:08:55;;;;;;;3.92;3.42;;;23.70;99.90;;;;;;5033177;28;20053;-59
2022/08/09 06:12:00;;;;;;;3.85;3.45;;;23.70;99.90;;;;;;5033049;28;20052;-60
2022/08/09 06:15:05;;;;;;;3.40;3.10;;;23.60;99.90;;;;;;5032819;28;20048;-60
2022/08/09 06:18:09;;;;;;;3.40;2.88;;;23.70;99.90;;;;;;5033385;28;20052;-59
2022/08/09 06:21:13;;;;;;;3.55;3.25;;;23.90;99.90;;;;;;5032823;28;20127;-59
2022/08/09 06:24:16;;;;;;;3.60;2.78;;;24.20;99.90;;;;;;5032994;28;20041;-59
2022/08/09 06:27:20;;;;;;;3.97;3.38;;;24.40;99.90;;;;;;5032949;28;20523;-59
2022/08/09 06:30:24;;;;;;;4.32;3.63;;;24.70;99.90;;;;;;5032721;28;20068;-61
2022/08/09 06:33:28;;;;;;;5.97;3.40;;;25.00;99.90;;;;;;5032683;28;20160;-60
2022/08/09 06:36:32;;;;;;;3.78;3.30;;;25.30;99.90;;;;;;5032860;28;20048;-59
2022/08/09 06:39:36;;;;;;;4.32;3.58;;;25.60;99.90;;;;;;5032951;28;20044;-59
2022/08/09 06:42:41;;;;;;;3.78;2.97;;;25.90;99.90;;;;;;5032836;28;20052;-61
2022/08/09 06:45:45;;;;;;;4.13;3.72;;;25.50;99.90;;;;;;5032565;28;20037;-59
2022/08/09 06:48:49;;;;;;;4.95;3.60;;;25.40;99.90;;;;;;5032785;28;20048;-59
2022/08/09 06:51:53;;;;;;;5.40;3.72;;;25.40;99.90;;;;;;5032477;28;20056;-59
2022/08/09 06:54:57;;;;;;;4.07;3.17;;;25.50;99.90;;;;;;5032199;28;20036;-59
2022/08/09 06:58:02;;;;;;;4.13;3.10;;;25.70;99.90;;;;;;5030813;28;20499;-60
2022/08/09 07:01:06;;;;;;;4.10;3.10;;;25.70;99.90;;;;;;5015888;28;20042;-60
2022/08/09 07:04:10;;;;;;;3.83;3.30;;;25.70;99.90;;;;;;5031558;28;20070;-61
2022/08/09 07:07:14;;;;;;;3.63;3.20;;;25.40;99.90;;;;;;5028181;28;20047;-60
2022/08/09 07:10:18;;;;;;;5.80;3.50;;;25.50;99.90;;;;;;5025413;28;20219;-60
2022/08/09 07:13:23;;;;;;;6.55;3.53;;;25.60;99.90;;;;;;5029026;28;20052;-61
2022/08/09 07:16:27;;;;;;;5.07;3.55;;;25.90;99.90;;;;;;5031410;28;20515;-61
2022/08/09 07:19:30;;;;;;;6.57;4.13;;;26.20;99.90;;;;;;5012167;28;20049;-60
2022/08/09 07:22:35;;;;;;;5.53;3.70;;;24.10;99.90;;;;;;5031083;28;20084;-59
2022/08/09 07:25:40;;;;;;;8.48;3.60;;;24.50;99.90;;;;;;5028487;28;21408;-61
2022/08/09 07:28:44;;;;;;;6.07;4.00;;;25.20;99.90;;;;;;5012258;28;20045;-59
2022/08/09 07:31:48;;;;;;;4.28;3.60;;;25.70;99.90;;;;;;5019631;28;20416;-61
2022/08/09 07:34:52;;;;;;;9.45;3.17;;;26.10;99.90;;;;;;5024428;28;20048;-60
2022/08/09 07:37:56;;;;;;;4.72;3.30;;;26.30;99.90;;;;;;5018770;28;20033;-61
2022/08/09 07:41:01;;;;;;;5.13;3.70;;;26.70;99.90;;;;;;5007332;28;20052;-61
2022/08/09 07:44:05;;;;;;;5.80;4.18;;;26.90;99.90;;;;;;5011612;28;20065;-61
2022/08/09 07:47:09;;;;;;;3.78;3.10;;;27.00;99.90;;;;;;5015277;28;20060;-61
2022/08/09 07:50:12;;;;;;;3.72;2.88;;;27.10;99.90;;;;;;5028580;28;20064;-61
2022/08/09 07:53:16;;;;;;;3.35;3.05;;;27.50;99.90;;;;;;5021066;28;20049;-59
2022/08/09 07:56:21;;;;;;;3.42;2.90;;;27.80;99.90;;;;;;5018854;28;20404;-61
2022/08/09 07:59:25;;;;;;;2.80;2.60;;;28.00;99.90;;;;;;4999380;28;20432;-61
2022/08/09 08:02:29;;;;;;;3.60;3.05;;;28.30;99.90;;;;;;5027476;28;20048;-61
2022/08/09 08:05:33;;;;;;;4.07;3.10;;;29.00;99.90;;;;;;5030946;28;20107;-61
2022/08/09 08:08:37;;;;;;;3.60;3.30;;;29.70;99.40;;;;;;5031083;28;20053;-61
2022/08/09 08:11:41;;;;;;;5.85;3.38;;;30.10;98.60;;;;;;5031026;28;20048;-59
2022/08/09 08:14:46;;;;;;;4.05;3.25;;;30.00;98.50;;;;;;5030556;28;20424;-61
2022/08/09 08:17:51;;;;;;;4.35;3.05;;;30.00;98.40;;;;;;5035895;22;20053;-57
2022/08/09 08:20:56;;;;;;;4.05;2.97;;;30.20;98.10;;;;;;5008333;28;20044;-57
2022/08/09 08:24:00;;;;;;;5.35;3.50;;;30.50;98.00;;;;;;5010503;28;20049;-57
2022/08/09 08:27:04;;;;;;;4.57;2.70;;;31.60;97.20;;;;;;5006366;28;20057;-57
2022/08/09 08:30:09;;;;;;;3.88;3.00;;;32.50;95.90;;;;;;5008481;28;20052;-55
2022/08/09 08:33:14;;;;;;;7.35;3.38;;;32.70;94.60;;;;;;5009828;28;20049;-57
2022/08/09 08:36:19;;;;;;;3.80;2.78;;;32.50;94.60;;;;;;4994309;28;20042;-56
2022/08/09 08:39:22;;;;;;;5.15;2.85;;;33.60;94.00;;;;;;5007253;28;20041;-56
2022/08/09 08:42:28;;;;;;;4.28;2.90;;;35.40;91.30;;;;;;5005713;28;20044;-57
2022/08/09 08:45:34;;;;;;;6.43;3.38;;;35.00;89.70;;;;;;5009111;28;20045;-56
2022/08/09 08:48:40;;;;;;;3.63;3.22;;;34.00;89.70;;;;;;5004889;28;20056;-53
2022/08/09 08:51:44;;;;;;;4.43;2.75;;;34.50;89.20;;;;;;5005008;28;20044;-57
2022/08/09 08:54:48;;;;;;;4.60;2.60;;;37.30;85.30;;;;;;5005176;28;20040;-56
2022/08/09 08:57:56;;;;;;;7.43;2.80;;;39.30;79.40;;;;;;5002511;28;20507;-56
2022/08/09 09:01:02;;;;;;;3.35;2.50;;;39.50;75.50;;;;;;5007047;28;20065;-57
2022/08/09 09:04:09;;;;;;;3.55;2.30;;;40.70;74.20;;;;;;4999873;28;20061;-57
2022/08/09 09:07:14;;;;;;;2.80;2.50;;;42.30;71.00;;;;;;5006489;28;20062;-56
2022/08/09 09:10:21;;;;;;;4.25;2.42;;;43.90;67.70;;;;;;5010183;28;20050;-56
2022/08/09 09:13:25;;;;;;;3.92;2.35;;;43.90;66.70;;;;;;4996850;28;20045;-54
2022/08/09 09:16:31;;;;;;;3.05;2.30;;;44.10;64.30;;;;;;5000337;28;20053;-53
2022/08/09 09:19:36;;;;;;;3.72;2.47;;;44.60;64.30;;;;;;5005002;28;20404;-57
2022/08/09 09:22:58;;;;;;;2.55;2.25;;;45.70;63.10;;;;;;5005942;28;20044;-53
2022/08/09 09:26:02;;;;;;;4.20;2.17;;;46.10;61.80;;;;;;5008232;28;20052;-56
2022/08/09 09:29:06;;;;;;;2.60;2.20;;;45.70;60.60;;;;;;5009314;28;20049;-57
2022/08/09 09:32:10;;;;;;;3.40;2.70;;;44.30;61.70;;;;;;5008898;28;20068;-53
2022/08/09 09:35:14;;;;;;;4.95;2.80;;;43.60;61.60;;;;;;5007583;28;20057;-55
2022/08/09 09:38:21;;;;;;;3.67;2.70;;;42.30;63.20;;;;;;5006753;28;20044;-56
2022/08/09 09:41:29;;;;;;;3.10;2.35;;;42.40;62.80;;;;;;5002538;28;20044;-57
2022/08/09 09:44:33;;;;;;;3.65;2.60;;;43.70;62.00;;;;;;5008363;28;20060;-57
2022/08/09 09:47:45;;;;;;;3.85;2.53;;;44.60;62.10;;;;;;5008261;28;20512;-57
2022/08/09 09:50:50;;;;;;;3.67;2.78;;;44.90;60.40;;;;;;5004927;28;20410;-57
2022/08/09 09:54:06;;;;;;;3.95;2.50;;;44.70;61.00;;;;;;5000251;28;20040;-57
2022/08/09 09:57:22;;;;;;;4.20;2.50;;;44.20;60.80;;;;;;5008629;28;20060;-57
2022/08/09 10:00:26;;;;;;;4.20;2.33;;;45.00;59.90;;;;;;5002776;28;20033;-52
2022/08/09 10:03:42;;;;;;;2.95;2.65;;;44.10;61.50;;;;;;4987058;28;20045;-55
2022/08/09 10:06:47;;;;;;;3.22;2.47;;;42.10;61.30;;;;;;5008819;28;20056;-57
2022/08/09 10:09:56;;;;;;;8.32;2.70;;;43.30;62.30;;;;;;5009493;28;20061;-57
2022/08/09 10:13:00;;;;;;;3.45;2.88;;;43.60;60.80;;;;;;5008903;28;20049;-57
2022/08/09 10:16:04;;;;;;;3.70;2.78;;;42.50;61.80;;;;;;5009099;28;20061;-55
2022/08/09 10:19:08;;;;;;;4.47;2.92;;;41.00;62.20;;;;;;5007362;28;20548;-53
2022/08/09 10:22:12;;;;;;;2.83;2.50;;;41.00;63.30;;;;;;5008000;28;21389;-55
2022/08/09 10:25:16;;;;;;;3.30;3.00;;;41.00;62.80;;;;;;5006637;28;20044;-56
2022/08/09 10:28:20;;;;;;;5.93;3.35;;;39.80;63.50;;;;;;5000506;28;20045;-56
2022/08/09 10:31:24;;;;;;;3.72;3.10;;;39.30;63.20;;;;;;5004946;28;20033;-52
2022/08/09 10:34:30;;;;;;;3.95;3.05;;;40.00;63.70;;;;;;5009590;28;20507;-52
2022/08/09 10:37:34;;;;;;;5.40;3.25;;;38.60;63.90;;;;;;4996192;28;20033;-55
2022/08/09 10:40:42;;;;;;;4.38;3.40;;;36.70;67.00;;;;;;5009201;28;20037;-55
2022/08/09 10:43:49;;;;;;;4.93;3.75;;;35.90;67.50;;;;;;5008767;28;20049;-54
2022/08/09 10:47:00;;;;;;;5.57;3.65;;;34.40;69.40;;;;;;5006307;28;20102;-56
2022/08/09 10:50:11;;;;;;;4.72;4.15;;;33.30;70.80;;;;;;5009775;28;20048;-55
2022/08/09 10:53:44;;;;;;;5.63;4.10;;;32.30;72.30;;;;;;5009443;28;20559;-57
2022/08/09 10:57:08;;;;;;;7.25;4.20;;;32.40;72.70;;;;;;5001543;28;20053;-56
2022/08/09 11:00:33;;;;;;;4.57;3.90;;;32.30;73.20;;;;;;5011950;28;20057;-57
2022/08/09 11:03:57;;;;;;;4.75;4.00;;;31.90;73.30;;;;;;4998620;28;20069;-53
2022/08/09 11:07:01;;;;;;;6.60;3.72;;;32.30;73.80;;;;;;5010675;28;20033;-55
2022/08/09 11:10:06;;;;;;;3.92;3.47;;;34.60;70.90;;;;;;5001464;28;20536;-53
2022/08/09 11:13:18;;;;;;;4.28;3.25;;;36.20;68.30;;;;;;5009525;28;20049;-54
2022/08/09 11:16:37;;;;;;;3.22;2.90;;;37.80;66.80;;;;;;5004413;28;20049;-55
2022/08/09 11:20:03;;;;;;;3.67;3.22;;;39.30;64.40;;;;;;5010614;28;20041;-53
2022/08/09 11:23:07;;;;;;;3.25;2.95;;;39.60;63.80;;;;;;5011377;28;20048;-54
2022/08/09 11:26:38;;;;;;;4.07;3.15;;;39.80;63.80;;;;;;5011689;28;20041;-54
2022/08/09 11:29:50;;;;;;;;;;;41.30;62.90;;;;;;5012087;28;20052;-53
2022/08/09 11:33:23;;;;;;;5.13;2.80;;;41.20;62.00;;;;;;5012006;28;20284;-54
2022/08/09 11:36:40;;;;;;;5.20;2.42;;;41.90;62.00;;;;;;5011175;28;20056;-53
2022/08/09 11:40:09;;;;;;;3.03;2.72;;;40.90;61.30;;;;;;5002804;28;20048;-53
2022/08/09 11:43:16;;;;;;;4.40;2.80;;;39.60;63.20;;;;;;5009258;28;20049;-53
2022/08/09 11:46:21;;;;;;;4.40;2.60;;;40.10;62.90;;;;;;5005567;28;20033;-53
2022/08/09 11:49:58;;;;;;;3.25;2.95;;;40.90;61.60;;;;;;4992450;28;20405;-53
2022/08/09 11:53:08;;;;;;;4.47;2.33;;;42.40;61.40;;;;;;5008830;28;20049;-54
2022/08/09 11:56:12;;;;;;;;;;;43.00;59.50;;;;;;5004016;28;20133;-54
2022/08/09 11:59:27;;;;;;;2.40;2.20;;;42.70;59.80;;;;;;5010289;28;20280;-53
2022/08/09 12:02:31;;;;;;;3.03;2.40;;;44.00;59.40;;;;;;5004719;28;20065;-53
2022/08/09 12:05:35;;;;;;;3.28;2.50;;;44.00;59.00;;;;;;4992159;28;20057;-53
2022/08/09 12:08:54;;;;;;;3.45;2.50;;;43.70;59.20;;;;;;5010760;28;20040;-53
2022/08/09 12:12:01;;;;;;;2.50;2.28;;;43.20;59.30;;;;;;5010429;28;20419;-51
2022/08/09 12:15:23;;;;;;;3.90;2.22;;;42.50;59.40;;;;;;5010168;28;20048;-52
2022/08/09 12:18:28;;;;;;;5.40;3.10;;;42.40;59.10;;;;;;5010441;28;20061;-53
2022/08/09 12:21:36;;;;;;;5.55;3.03;;;42.50;59.50;;;;;;5005378;28;20037;-51
2022/08/09 12:24:40;;;;;;;2.70;2.30;;;42.00;57.70;;;;;;4995754;28;20057;-49
2022/08/09 12:27:45;;;;;;;3.33;2.60;;;41.10;59.20;;;;;;5002346;28;20033;-52
2022/08/09 12:30:49;;;;;;;3.67;3.10;;;40.90;59.10;;;;;;5010272;28;20053;-53
2022/08/09 12:33:55;;;;;;;3.22;2.60;;;40.70;59.60;;;;;;5007694;28;20041;-53
2022/08/09 12:37:00;;;;;;;2.63;2.42;;;41.70;59.50;;;;;;4998658;28;20079;-53
2022/08/09 12:40:10;;;;;;;4.97;2.80;;;41.90;59.00;;;;;;5009119;28;20045;-52
2022/08/09 12:43:17;;;;;;;2.65;2.45;;;40.90;59.10;;;;;;5010420;28;20409;-52
2022/08/09 12:46:24;;;;;;;2.75;2.55;;;39.60;60.40;;;;;;5010163;28;20065;-52
2022/08/09 12:49:27;;;;;;;2.97;2.72;;;40.20;60.00;;;;;;5010001;28;20061;-53
2022/08/09 12:52:40;;;;;;;3.03;2.72;;;39.20;60.80;;;;;;5010566;28;20053;-53
2022/08/09 12:55:43;;;;;;;2.90;2.63;;;38.50;61.80;;;;;;5004904;28;20040;-52
2022/08/09 12:59:09;;;;;;;5.78;3.15;;;38.90;61.20;;;;;;5010145;28;20052;-53
2022/08/09 13:02:13;;;;;;;3.53;3.00;;;39.10;60.70;;;;;;4991459;28;20045;-53
2022/08/09 13:05:18;;;;;;;3.53;2.65;;;39.60;60.60;;;;;;5010137;28;20530;-53
2022/08/09 13:08:23;;;;;;;3.60;2.95;;;40.00;60.60;;;;;;5010781;28;20104;-49
2022/08/09 13:11:29;;;;;;;5.57;2.92;;;38.30;61.30;;;;;;5009781;28;20060;-51
2022/08/09 13:14:33;;;;;;;6.43;3.15;;;36.30;63.90;;;;;;5008330;28;20127;-52
2022/08/09 13:17:38;;;;;;;5.63;3.30;;;35.30;64.70;;;;;;5005735;28;20041;-49
2022/08/09 13:20:42;;;;;;;3.50;3.20;;;34.70;66.60;;;;;;5008601;28;20045;-50
2022/08/09 13:23:46;;;;;;;4.78;3.60;;;35.30;66.30;;;;;;4999867;28;20049;-52
2022/08/09 13:26:50;;;;;;;4.38;3.53;;;36.20;65.40;;;;;;5009657;28;20447;-52
2022/08/09 13:30:06;;;;;;;3.47;3.15;;;36.80;65.10;;;;;;5008669;28;20045;-49
2022/08/09 13:33:22;;;;;;;5.53;3.38;;;37.10;64.60;;;;;;5007670;28;20516;-51
2022/08/09 13:36:26;;;;;;;4.47;3.50;;;35.20;64.10;;;;;;5009629;28;20045;-49
2022/08/09 13:39:31;;;;;;;3.67;3.38;;;34.00;65.90;;;;;;5009454;28;20052;-48
2022/08/09 13:42:36;;;;;;;4.38;3.60;;;34.10;66.60;;;;;;4997387;28;20037;-52
2022/08/09 13:45:40;;;;;;;3.88;3.47;;;35.30;66.30;;;;;;5008662;28;20040;-48
2022/08/09 13:48:44;;;;;;;3.42;2.90;;;35.70;65.00;;;;;;5009460;28;20040;-51
2022/08/09 13:51:49;;;;;;;3.50;3.10;;;36.20;65.50;;;;;;5008430;28;20428;-51
2022/08/09 13:54:54;;;;;;;5.30;3.75;;;36.00;65.30;;;;;;5008267;28;20172;-52
2022/08/09 13:57:57;;;;;;;4.95;3.20;;;35.60;65.60;;;;;;5008435;28;20041;-52
2022/08/09 14:01:01;;;;;;;5.30;3.15;;;35.40;65.60;;;;;;5008563;28;20516;-52
2022/08/09 14:04:05;;;;;;;3.95;3.40;;;34.60;65.90;;;;;;5006614;28;20055;-53
2022/08/09 14:07:09;;;;;;;7.78;3.47;;;34.00;67.00;;;;;;4997622;28;20416;-52
2022/08/09 14:10:14;;;;;;;6.97;3.28;;;33.60;67.50;;;;;;4989774;28;20509;-52
2022/08/09 14:13:19;;;;;;;7.63;3.88;;;33.50;67.40;;;;;;5004907;28;20434;-51
2022/08/09 14:16:27;;;;;;;6.57;3.20;;;33.60;68.40;;;;;;5008818;28;20036;-50
2022/08/09 14:18:56;;;;;;;4.20;3.25;;;34.00;67.50;;;;;;5078002;22;20523;-56
2022/08/09 14:22:01;;;;;;;4.85;3.42;;;34.20;67.90;;;;;;5037775;28;20511;-58
2022/08/09 14:25:06;;;;;;;4.88;3.80;;;33.80;68.60;;;;;;5042538;28;20514;-57
2022/08/09 14:28:09;;;;;;;5.75;3.50;;;34.40;68.60;;;;;;5038638;28;20048;-57
2022/08/09 14:31:13;;;;;;;4.45;3.92;;;35.00;68.00;;;;;;5031242;28;20049;-58
2022/08/09 14:34:18;;;;;;;4.13;3.58;;;35.30;67.20;;;;;;5040912;28;20052;-57
2022/08/09 14:37:21;;;;;;;5.40;3.65;;;35.10;67.50;;;;;;5032895;28;20045;-58
2022/08/09 14:40:26;;;;;;;3.88;3.53;;;34.70;68.10;;;;;;5047496;28;20041;-58
2022/08/09 14:43:29;;;;;;;4.35;3.50;;;34.40;68.90;;;;;;5041517;28;20040;-58
2022/08/09 14:46:33;;;;;;;4.05;3.65;;;34.20;69.40;;;;;;5036793;28;20064;-59
2022/08/09 14:49:39;;;;;;;4.82;4.07;;;34.00;69.60;;;;;;5052704;28;20067;-58
2022/08/09 14:52:42;;;;;;;4.78;3.72;;;33.50;68.40;;;;;;5045579;28;20048;-56
2022/08/09 14:55:46;;;;;;;6.40;4.10;;;33.30;70.00;;;;;;5032637;28;20526;-54
2022/08/09 14:58:50;;;;;;;5.72;4.70;;;32.80;70.90;;;;;;5032499;28;20060;-58
2022/08/09 15:01:54;;;;;;;7.22;4.55;;;32.60;71.90;;;;;;5032171;28;20045;-58
2022/08/09 15:04:58;;;;;;;6.35;4.53;;;32.10;72.20;;;;;;5032171;28;20044;-57
2022/08/09 15:08:03;;;;;;;7.75;4.40;;;32.00;73.30;;;;;;5032280;28;20064;-57
2022/08/09 15:11:07;;;;;;;6.97;4.63;;;31.80;73.30;;;;;;5031851;28;20664;-58
2022/08/09 15:14:11;;;;;;;7.43;5.20;;;31.80;73.40;;;;;;5032230;28;20049;-58
2022/08/09 15:17:15;;;;;;;6.22;5.03;;;32.00;73.10;;;;;;5031679;28;20068;-57
2022/08/09 15:20:21;;;;;;;8.00;5.45;;;32.20;73.30;;;;;;5031878;28;20049;-54
2022/08/09 15:23:25;;;;;;;6.53;4.85;;;31.70;73.10;;;;;;5031544;28;20447;-56
2022/08/09 15:26:29;;;;;;;9.65;5.25;;;31.20;73.50;;;;;;5031971;28;20044;-57
2022/08/09 15:29:33;;;;;;;8.80;5.50;;;31.20;73.50;;;;;;5032078;28;20048;-55
2022/08/09 15:32:37;;;;;;;7.82;5.25;;;31.30;74.00;;;;;;5031593;28;20380;-57
2022/08/09 15:35:42;;;;;;;8.57;5.60;;;31.30;73.60;;;;;;5031197;28;20511;-57
2022/08/09 15:38:46;;;;;;;8.30;5.53;;;31.40;73.70;;;;;;5031506;28;20060;-60
2022/08/09 15:41:50;;;;;;;7.28;5.35;;;31.60;73.70;;;;;;5031643;28;20045;-57
2022/08/09 15:44:57;;;;;;;7.53;5.50;;;31.50;73.70;;;;;;5031540;28;20048;-57
2022/08/09 15:48:01;;;;;;;5.90;4.65;;;31.50;73.90;;;;;;5031658;28;20053;-57
2022/08/09 15:51:06;;;;;;;5.80;5.10;;;31.50;73.60;;;;;;5031756;28;20404;-57
2022/08/09 15:54:10;;;;;;;7.55;4.53;;;31.50;73.30;;;;;;5031580;28;20068;-58
2022/08/09 15:57:16;;;;;;;8.55;5.25;;;31.50;72.20;;;;;;5031233;28;20408;-55
2022/08/09 16:00:23;;;;;;;6.03;5.00;;;31.60;73.40;;;;;;5031348;28;20045;-59
2022/08/09 16:03:26;;;;;;;6.22;4.72;;;31.70;73.20;;;;;;5030792;28;20040;-56
2022/08/09 16:06:31;;;;;;;8.10;5.20;;;31.80;73.10;;;;;;5031684;28;20036;-56
2022/08/09 16:09:35;;;;;;;5.47;4.82;;;31.90;73.20;;;;;;5031201;28;20408;-59
2022/08/09 16:12:40;;;;;;;8.85;5.00;;;31.90;73.10;;;;;;5030987;28;20048;-59